Time;durP1;ratioP1;P1;durP2;ratioP2;P2;SDS_P1;SDS_P2;PMS_P1;PMS_P2;Temp;Humidity;BMP_temperature;BMP_pressure;BME280_temperature;BME280_humidity;BME280_pressure;Samples;Min_cycle;Max_cycle;Signal;HPM_P1;HPM_P2
2023/04/25 00:01:57;;;;;;;;;;;;;;;10.15;63.71;100123.19;4105321;28;20020;-67
2023/04/25 00:04:01;;;;;;;;;;;;;;;10.13;63.49;100121.72;4104990;28;20026;-67
2023/04/25 00:06:04;;;;;;;;;;;;;;;10.09;63.34;100126.63;4105174;28;20029;-66
2023/04/25 00:08:06;;;;;;;;;;;;;;;10.09;63.44;100132.03;4105897;28;20013;-67
2023/04/25 00:10:09;;;;;;;;;;;;;;;10.08;62.67;100122.28;4105621;28;20433;-67
2023/04/25 00:12:11;;;;;;;;;;;;;;;10.09;62.55;100124.78;4104696;28;20010;-67
2023/04/25 00:14:13;;;;;;;;;;;;;;;10.08;62.45;100120.41;4072651;29;20022;-67
2023/04/25 00:16:15;;;;;;;;;;;;;;;10.05;62.06;100134.28;4104952;28;20025;-67
2023/04/25 00:18:17;;;;;;;;;;;;;;;10.04;62.00;100129.06;4105628;28;20021;-66
2023/04/25 00:20:19;;;;;;;;;;;;;;;10.04;62.04;100124.50;4105885;28;20345;-67
2023/04/25 00:22:22;;;;;;;;;;;;;;;10.02;61.59;100128.44;4104595;28;20014;-67
2023/04/25 00:24:24;;;;;;;;;;;;;;;10.00;61.61;100133.16;4106011;28;20017;-66
2023/04/25 00:26:26;;;;;;;;;;;;;;;9.99;61.19;100126.09;4105458;28;20025;-67
2023/04/25 00:28:28;;;;;;;;;;;;;;;10.00;61.28;100131.31;4105764;28;20025;-66
2023/04/25 00:30:30;;;;;;;;;;;;;;;10.01;61.16;100129.44;4088083;29;20025;-67
2023/04/25 00:32:32;;;;;;;;;;;;;;;10.01;61.04;100124.03;4104809;28;20021;-67
2023/04/25 00:34:34;;;;;;;;;;;;;;;10.02;60.95;100123.84;4104921;28;20034;-67
2023/04/25 00:36:37;;;;;;;;;;;;;;;10.03;60.85;100124.69;4088470;29;19927;-67
2023/04/25 00:38:41;;;;;;;;;;;;;;;10.05;60.74;100118.09;4105732;28;20017;-67
2023/04/25 00:40:43;;;;;;;;;;;;;;;10.04;60.49;100123.66;4073007;29;20874;-67
2023/04/25 00:42:45;;;;;;;;;;;;;;;10.02;60.67;100114.94;4104703;28;20026;-67
2023/04/25 00:44:47;;;;;;;;;;;;;;;9.99;60.79;100121.53;4105427;28;20428;-66
2023/04/25 00:46:49;;;;;;;;;;;;;;;9.99;60.86;100113.44;4105148;28;20615;-67
2023/04/25 00:48:51;;;;;;;;;;;;;;;9.99;61.07;100116.13;4087694;28;20037;-67
2023/04/25 00:50:54;;;;;;;;;;;;;;;9.97;61.04;100123.59;4104252;28;20021;-66
2023/04/25 00:52:56;;;;;;;;;;;;;;;9.95;60.96;100122.94;4104362;28;20345;-67
2023/04/25 00:54:59;;;;;;;;;;;;;;;9.96;61.04;100124.59;4089316;28;20466;-67
2023/04/25 00:57:02;;;;;;;;;;;;;;;9.94;61.27;100118.56;4105634;28;19930;-67
2023/04/25 00:59:04;;;;;;;;;;;;;;;9.93;61.37;100111.50;4104678;28;20013;-68
2023/04/25 01:01:06;;;;;;;;;;;;;;;9.93;61.68;100120.41;4104628;28;20017;-67
2023/04/25 01:03:09;;;;;;;;;;;;;;;9.97;61.71;100118.19;4105188;28;20033;-67
2023/04/25 01:05:11;;;;;;;;;;;;;;;10.00;61.59;100120.53;4103711;28;20366;-67
2023/04/25 01:07:14;;;;;;;;;;;;;;;10.02;61.41;100112.25;4104984;28;20029;-67
2023/04/25 01:09:16;;;;;;;;;;;;;;;9.98;61.64;100106.38;4103731;28;20346;-67
2023/04/25 01:11:19;;;;;;;;;;;;;;;10.00;61.85;100106.19;4104664;28;20017;-67
2023/04/25 01:13:21;;;;;;;;;;;;;;;9.96;61.85;100108.44;4104999;28;20025;-67
2023/04/25 01:15:23;;;;;;;;;;;;;;;10.00;61.53;100108.88;4104807;28;20402;-66
2023/04/25 01:17:27;;;;;;;;;;;;;;;10.04;61.41;100102.91;4104642;28;20006;-67
2023/04/25 01:19:29;;;;;;;;;;;;;;;10.10;61.39;100101.34;4105242;28;20034;-67
2023/04/25 01:21:32;;;;;;;;;;;;;;;10.11;61.31;100108.41;4105458;28;20460;-68
2023/04/25 01:23:34;;;;;;;;;;;;;;;10.09;61.26;100105.03;4087475;29;20414;-67
2023/04/25 01:25:36;;;;;;;;;;;;;;;10.07;61.14;100110.63;4104496;28;20037;-67
2023/04/25 01:27:38;;;;;;;;;;;;;;;10.08;61.12;100109.63;4106100;28;20372;-67
2023/04/25 01:29:40;;;;;;;;;;;;;;;10.06;61.40;100108.13;4087760;28;20061;-67
2023/04/25 01:31:44;;;;;;;;;;;;;;;10.05;61.42;100106.47;4087961;28;20025;-66
2023/04/25 01:33:46;;;;;;;;;;;;;;;10.03;61.59;100109.34;4103393;28;20025;-67
2023/04/25 01:35:48;;;;;;;;;;;;;;;10.02;61.72;100107.66;4106507;28;20025;-67
2023/04/25 01:37:52;;;;;;;;;;;;;;;10.04;61.46;100110.19;4106298;28;20012;-67
2023/04/25 01:39:54;;;;;;;;;;;;;;;10.03;61.53;100105.81;4107668;28;20360;-67
2023/04/25 01:41:59;;;;;;;;;;;;;;;10.01;61.79;100110.56;4107095;28;20017;-67
2023/04/25 01:44:02;;;;;;;;;;;;;;;9.99;61.98;100104.53;4074634;29;20422;-67
2023/04/25 01:46:04;;;;;;;;;;;;;;;10.00;61.84;100103.47;4090340;29;20017;-66
2023/04/25 01:48:06;;;;;;;;;;;;;;;10.00;61.87;100100.78;4105422;28;20047;-67
2023/04/25 01:50:09;;;;;;;;;;;;;;;9.96;62.16;100097.63;4090750;28;20038;-67
2023/04/25 01:52:12;;;;;;;;;;;;;;;9.93;62.17;100100.72;4074527;29;20591;-66
2023/04/25 01:54:16;;;;;;;;;;;;;;;9.89;62.45;100100.25;4105404;28;20021;-67
2023/04/25 01:56:18;;;;;;;;;;;;;;;9.89;62.36;100108.34;4106718;28;20030;-67
2023/04/25 01:58:20;;;;;;;;;;;;;;;9.88;62.28;100111.22;4091272;28;20643;-67
2023/04/25 02:00:49;;;;;;;;;;;;;;;9.86;62.51;100105.19;4104551;28;20522;-67
2023/04/25 02:02:53;;;;;;;;;;;;;;;9.87;62.46;100109.56;4107072;28;20039;-67
2023/04/25 02:05:06;;;;;;;;;;;;;;;9.86;62.48;100113.28;4090725;28;20033;-67
2023/04/25 02:07:12;;;;;;;;;;;;;;;9.87;62.39;100107.72;4105495;28;20377;-67
2023/04/25 02:09:24;;;;;;;;;;;;;;;9.84;62.58;100102.69;4090295;28;20021;-67
2023/04/25 02:11:30;;;;;;;;;;;;;;;9.89;62.36;100108.34;4106155;28;20021;-66
2023/04/25 02:13:51;;;;;;;;;;;;;;;9.85;62.32;100106.22;4106974;28;20038;-66
2023/04/25 02:16:21;;;;;;;;;;;;;;;9.83;62.53;100108.28;4089916;28;20046;-66
2023/04/25 02:18:23;;;;;;;;;;;;;;;9.80;62.50;100114.88;4107032;28;20443;-66
2023/04/25 02:20:25;;;;;;;;;;;;;;;9.82;62.51;100109.28;4089906;29;20001;-67
2023/04/25 02:22:30;;;;;;;;;;;;;;;9.80;62.48;100105.94;4089825;28;20006;-67
2023/04/25 02:24:34;;;;;;;;;;;;;;;9.81;62.68;100121.09;4104776;28;20013;-67
2023/04/25 02:26:36;;;;;;;;;;;;;;;9.78;62.61;100110.66;4106275;28;20018;-67
2023/04/25 02:28:43;;;;;;;;;;;;;;;9.77;62.71;100112.53;4089871;29;20030;-67
2023/04/25 02:30:45;;;;;;;;;;;;;;;9.74;62.71;100105.66;4105287;28;20033;-67
2023/04/25 02:32:47;;;;;;;;;;;;;;;9.72;62.88;100107.72;4090093;29;20411;-67
2023/04/25 02:34:49;;;;;;;;;;;;;;;9.71;62.97;100108.72;4106519;28;20034;-67
2023/04/25 02:36:51;;;;;;;;;;;;;;;9.71;62.84;100111.41;4107604;28;20046;-66
2023/04/25 02:38:53;;;;;;;;;;;;;;;9.67;63.18;100111.97;4074360;29;21050;-66
2023/04/25 02:40:57;;;;;;;;;;;;;;;9.66;63.14;100104.94;4090176;28;20025;-67
2023/04/25 02:43:01;;;;;;;;;;;;;;;9.59;63.28;100110.22;4106864;28;20021;-67
2023/04/25 02:45:04;;;;;;;;;;;;;;;9.60;63.37;100105.69;4106598;28;20476;-67
2023/04/25 02:47:06;;;;;;;;;;;;;;;9.66;62.96;100104.94;4106825;28;20025;-67
2023/04/25 02:49:08;;;;;;;;;;;;;;;9.69;62.81;100104.56;4105439;28;20029;-67
2023/04/25 02:51:10;;;;;;;;;;;;;;;9.68;63.07;100109.09;4088873;29;20464;-67
2023/04/25 02:53:13;;;;;;;;;;;;;;;9.65;62.98;100106.78;4089945;29;20017;-67
2023/04/25 02:55:22;;;;;;;;;;;;;;;9.61;63.30;100112.72;4088758;29;20374;-67
2023/04/25 02:57:26;;;;;;;;;;;;;;;9.56;63.70;100097.97;4088835;29;20034;-67
2023/04/25 02:59:28;;;;;;;;;;;;;;;9.54;63.55;100105.41;4106446;28;20389;-67
2023/04/25 03:01:30;;;;;;;;;;;;;;;9.51;63.52;100113.88;4088162;29;20553;-67
2023/04/25 03:03:32;;;;;;;;;;;;;;;9.52;63.79;100107.44;4106746;28;20370;-67
2023/04/25 03:05:34;;;;;;;;;;;;;;;9.51;63.61;100105.78;4106177;28;20559;-67
2023/04/25 03:07:36;;;;;;;;;;;;;;;9.50;63.61;100101.41;4089587;29;20021;-67
2023/04/25 03:09:38;;;;;;;;;;;;;;;9.48;63.81;100094.50;4106512;28;20017;-66
2023/04/25 03:11:41;;;;;;;;;;;;;;;9.53;63.44;100103.72;4088676;28;20026;-67
2023/04/25 03:13:44;;;;;;;;;;;;;;;9.54;63.59;100100.00;4089306;29;20032;-67
2023/04/25 03:15:47;;;;;;;;;;;;;;;9.56;63.43;100097.97;4088429;29;20029;-67
2023/04/25 03:17:49;;;;;;;;;;;;;;;9.55;63.63;100106.22;4106960;28;19957;-67
2023/04/25 03:19:50;;;;;;;;;;;;;;;9.55;63.51;100106.22;4106049;28;20032;-67
2023/04/25 03:21:53;;;;;;;;;;;;;;;9.52;63.73;100098.50;4065765;29;20027;-67
2023/04/25 03:23:55;;;;;;;;;;;;;;;9.50;63.71;100098.69;4074420;29;19969;-67
2023/04/25 03:25:58;;;;;;;;;;;;;;;9.50;63.75;100104.09;4089910;28;20013;-67
2023/04/25 03:28:00;;;;;;;;;;;;;;;9.49;63.71;100098.88;4105688;28;20037;-67
2023/04/25 03:30:04;;;;;;;;;;;;;;;9.48;63.86;100095.38;4088663;28;20025;-67
2023/04/25 03:32:06;;;;;;;;;;;;;;;9.48;64.06;100100.75;4088774;28;20022;-67
2023/04/25 03:34:08;;;;;;;;;;;;;;;9.50;63.82;100103.25;4072953;29;20034;-67
2023/04/25 03:36:10;;;;;;;;;;;;;;;9.51;63.48;100105.78;4074584;29;20022;-67
2023/04/25 03:38:12;;;;;;;;;;;;;;;9.51;63.81;100102.22;4089058;29;20029;-67
2023/04/25 03:40:15;;;;;;;;;;;;;;;9.55;63.63;100109.75;4088482;28;19930;-67
2023/04/25 03:42:43;;;;;;;;;;;;;;;9.54;63.75;100108.09;4097557;28;20017;-67
2023/04/25 03:44:46;;;;;;;;;;;;;;;9.51;63.73;100108.47;4089178;29;20373;-67
2023/04/25 03:46:50;;;;;;;;;;;;;;;9.53;63.62;100114.50;4089371;28;20017;-66
2023/04/25 03:48:53;;;;;;;;;;;;;;;9.52;63.84;100109.31;4088720;28;20043;-67
2023/04/25 03:50:59;;;;;;;;;;;;;;;9.53;63.48;100111.81;4104199;28;20017;-67
2023/04/25 03:53:01;;;;;;;;;;;;;;;9.56;63.34;100114.13;4103647;28;20029;-66
2023/04/25 03:55:07;;;;;;;;;;;;;;;9.59;63.30;100114.78;4088992;29;20037;-67
2023/04/25 03:57:10;;;;;;;;;;;;;;;9.56;63.50;100121.38;4089124;28;20104;-67
2023/04/25 03:59:14;;;;;;;;;;;;;;;9.49;63.48;100113.19;4103808;28;20006;-67
2023/04/25 04:01:16;;;;;;;;;;;;;;;9.47;63.93;100126.03;4088089;29;19930;-67
2023/04/25 04:03:21;;;;;;;;;;;;;;;9.48;63.64;100124.16;4088513;29;20033;-67
2023/04/25 04:05:23;;;;;;;;;;;;;;;9.49;63.77;100129.38;4105191;28;20017;-67
2023/04/25 04:07:32;;;;;;;;;;;;;;;9.48;63.69;100126.84;4073032;29;20018;-67
2023/04/25 04:09:35;;;;;;;;;;;;;;;9.48;63.93;100130.41;4089391;28;20021;-67
2023/04/25 04:11:41;;;;;;;;;;;;;;;9.49;63.68;100125.84;4088385;29;20013;-68
2023/04/25 04:13:43;;;;;;;;;;;;;;;9.51;63.65;100124.66;4103780;28;20028;-67
2023/04/25 04:15:45;;;;;;;;;;;;;;;9.49;63.90;100134.75;4073628;29;20034;-66
2023/04/25 04:17:47;;;;;;;;;;;;;;;9.48;63.84;100130.41;4105350;28;20021;-67
2023/04/25 04:19:50;;;;;;;;;;;;;;;9.48;63.95;100134.94;4088187;28;19969;-66
2023/04/25 04:21:56;;;;;;;;;;;;;;;9.49;63.96;100128.53;4088180;29;20381;-68
2023/04/25 04:23:59;;;;;;;;;;;;;;;9.46;64.08;100135.13;4088201;28;20053;-66
2023/04/25 04:26:03;;;;;;;;;;;;;;;9.44;64.31;100139.03;4103074;28;20362;-67
2023/04/25 04:28:31;;;;;;;;;;;;;;;9.41;64.24;100140.25;4101502;28;20020;-67
2023/04/25 04:30:38;;;;;;;;;;;;;;;9.43;64.13;100134.66;4104793;28;20025;-68
2023/04/25 04:32:43;;;;;;;;;;;;;;;9.45;64.19;100135.31;4088105;28;20396;-67
2023/04/25 04:34:47;;;;;;;;;;;;;;;9.46;64.10;100137.00;4105239;28;20021;-67
2023/04/25 04:36:52;;;;;;;;;;;;;;;9.45;64.11;100138.88;4089747;28;20013;-67
2023/04/25 04:38:56;;;;;;;;;;;;;;;9.44;64.25;100137.19;4103937;28;20016;-66
2023/04/25 04:41:25;;;;;;;;;;;;;;;9.42;64.42;100139.22;4103046;28;20012;-67
2023/04/25 04:43:41;;;;;;;;;;;;;;;9.39;64.71;100139.59;4088067;28;19931;-67
2023/04/25 04:45:52;;;;;;;;;;;;;;;9.40;64.53;100138.56;4088935;29;20025;-66
2023/04/25 04:48:06;;;;;;;;;;;;;;;9.37;64.67;100134.38;4103141;28;20049;-66
2023/04/25 04:50:12;;;;;;;;;;;;;;;9.33;64.84;100148.41;4086907;28;20030;-67
2023/04/25 04:52:37;;;;;;;;;;;;;;;9.33;65.05;100149.25;4094576;28;20025;-66
2023/04/25 04:54:59;;;;;;;;;;;;;;;9.33;65.13;100156.50;4104856;28;20022;-67
2023/04/25 04:57:17;;;;;;;;;;;;;;;9.33;65.12;100148.41;4087096;29;20013;-66
2023/04/25 04:59:36;;;;;;;;;;;;;;;9.40;65.13;100151.19;4074286;29;20019;-66
2023/04/25 05:01:47;;;;;;;;;;;;;;;9.39;65.38;100150.38;4104915;28;20339;-66
2023/04/25 05:04:13;;;;;;;;;;;;;;;9.37;65.04;100152.41;4100569;28;20297;-66
2023/04/25 05:06:47;;;;;;;;;;;;;;;9.37;65.25;100152.41;4098978;28;20009;-65
2023/04/25 05:09:20;;;;;;;;;;;;;;;9.38;65.43;100157.59;4090396;28;20162;-66
2023/04/25 05:11:42;;;;;;;;;;;;;;;9.40;65.29;100152.03;4089899;28;20018;-67
2023/04/25 05:14:16;;;;;;;;;;;;;;;9.40;65.54;100148.50;4065400;28;19973;-67
2023/04/25 05:16:23;;;;;;;;;;;;;;;9.43;65.17;100153.53;4088925;29;20449;-66
2023/04/25 05:18:46;;;;;;;;;;;;;;;9.45;65.11;100148.78;4089378;29;20017;-67
2023/04/25 05:21:17;;;;;;;;;;;;;;;9.46;65.05;100155.84;4093419;28;20017;-66
2023/04/25 05:23:43;;;;;;;;;;;;;;;9.51;64.90;100166.91;4091264;28;20014;-67
2023/04/25 05:25:58;;;;;;;;;;;;;;;9.52;64.75;100164.03;4107549;28;20013;-67
2023/04/25 05:28:13;;;;;;;;;;;;;;;9.56;64.62;100159.97;4105954;28;20025;-67
2023/04/25 05:30:24;;;;;;;;;;;;;;;9.57;64.44;100164.31;4090573;29;20377;-67
2023/04/25 05:32:50;;;;;;;;;;;;;;;9.55;64.64;100166.38;4106181;28;20021;-67
2023/04/25 05:34:52;;;;;;;;;;;;;;;9.55;64.88;100168.22;4106206;28;20049;-67
2023/04/25 05:37:20;;;;;;;;;;;;;;;9.52;64.81;100168.59;4105099;28;19937;-68
2023/04/25 05:39:31;;;;;;;;;;;;;;;9.54;64.66;100164.72;4091867;28;20473;-67
2023/04/25 05:41:53;;;;;;;;;;;;;;;9.52;64.70;100164.03;4107328;28;20470;-67
2023/04/25 05:44:22;;;;;;;;;;;;;;;9.52;65.05;100172.13;4107089;28;20020;-68
2023/04/25 05:46:37;;;;;;;;;;;;;;;9.48;64.93;100162.75;4090386;29;19927;-67
2023/04/25 05:48:58;;;;;;;;;;;;;;;9.52;64.99;100169.44;4107674;28;20081;-65
2023/04/25 05:51:21;;;;;;;;;;;;;;;9.54;65.16;100171.94;4082425;29;20021;-67
2023/04/25 05:53:43;;;;;;;;;;;;;;;9.55;65.05;100171.75;4061708;29;19965;-67
2023/04/25 05:55:45;;;;;;;;;;;;;;;9.59;65.02;100174.91;4073464;29;20013;-67
2023/04/25 05:58:03;;;;;;;;;;;;;;;9.57;65.01;100177.78;4090289;29;20001;-67
2023/04/25 06:00:09;;;;;;;;;;;;;;;9.63;65.09;100178.09;4090266;28;20385;-67
2023/04/25 06:02:18;;;;;;;;;;;;;;;9.65;64.81;100176.88;4075353;29;20384;-67
2023/04/25 06:04:20;;;;;;;;;;;;;;;9.67;65.02;100190.16;4058546;29;20026;-67
2023/04/25 06:06:22;;;;;;;;;;;;;;;9.69;64.73;100199.75;4075448;29;19927;-68
2023/04/25 06:08:24;;;;;;;;;;;;;;;9.72;64.75;100194.00;4087907;29;20005;-67
2023/04/25 06:10:26;;;;;;;;;;;;;;;9.74;64.59;100185.72;4088346;29;20034;-67
2023/04/25 06:12:28;;;;;;;;;;;;;;;9.73;64.71;100186.75;4089160;29;20029;-67
2023/04/25 06:14:32;;;;;;;;;;;;;;;9.74;64.40;100193.81;4059427;29;20076;-67
2023/04/25 06:16:34;;;;;;;;;;;;;;;9.71;64.59;100195.00;4088533;29;20262;-65
2023/04/25 06:18:36;;;;;;;;;;;;;;;9.69;64.85;100202.47;4090046;29;19942;-67
2023/04/25 06:20:38;;;;;;;;;;;;;;;9.68;64.81;100190.00;4055201;29;20019;-68
2023/04/25 06:22:40;;;;;;;;;;;;;;;9.70;64.93;100196.06;4060843;29;19935;-68
2023/04/25 06:24:43;;;;;;;;;;;;;;;9.70;64.89;100189.81;4054418;29;20950;-67
2023/04/25 06:26:47;;;;;;;;;;;;;;;9.71;64.92;100196.88;4073427;29;20484;-67
2023/04/25 06:28:52;;;;;;;;;;;;;;;9.71;64.87;100192.31;4089834;29;20310;-66
2023/04/25 06:30:55;;;;;;;;;;;;;;;9.71;65.02;100186.91;4074469;29;20021;-67
2023/04/25 06:32:58;;;;;;;;;;;;;;;9.75;64.88;100198.19;4087979;29;20025;-66
2023/04/25 06:35:00;;;;;;;;;;;;;;;9.73;65.02;100200.22;4074959;29;20033;-67
2023/04/25 06:37:02;;;;;;;;;;;;;;;9.75;64.96;100198.19;4086226;28;20026;-67
2023/04/25 06:39:05;;;;;;;;;;;;;;;9.77;64.96;100192.63;4088704;29;19954;-66
2023/04/25 06:41:08;;;;;;;;;;;;;;;9.76;65.16;100194.47;4072429;29;20025;-69
2023/04/25 06:43:12;;;;;;;;;;;;;;;9.79;64.98;100186.00;4057000;29;20022;-67
2023/04/25 06:45:33;;;;;;;;;;;;;;;9.80;65.12;100197.66;4071446;29;20461;-67
2023/04/25 06:47:36;;;;;;;;;;;;;;;9.82;64.93;100195.59;4059247;29;20478;-68
2023/04/25 06:49:38;;;;;;;;;;;;;;;9.83;64.68;100192.72;4088526;29;20474;-67
2023/04/25 06:51:41;;;;;;;;;;;;;;;9.83;65.12;100197.28;4074571;29;20022;-69
2023/04/25 06:53:44;;;;;;;;;;;;;;;9.82;65.12;100199.13;4086752;29;20009;-68
2023/04/25 06:55:53;;;;;;;;;;;;;;;9.83;65.22;100202.66;4073288;29;20022;-68
2023/04/25 06:57:58;;;;;;;;;;;;;;;9.82;65.13;100192.91;4058762;29;20087;-69
2023/04/25 07:00:22;;;;;;;;;;;;;;;9.81;65.39;100193.91;4054870;29;19930;-68
2023/04/25 07:02:34;;;;;;;;;;;;;;;9.80;65.53;100208.44;4070839;29;19931;-69
2023/04/25 07:04:38;;;;;;;;;;;;;;;9.79;65.39;100201.34;4053370;29;20564;-68
2023/04/25 07:06:42;;;;;;;;;;;;;;;9.79;65.73;100196.78;4070133;29;20052;-68
2023/04/25 07:08:45;;;;;;;;;;;;;;;9.81;65.53;100205.56;4069965;29;20038;-68
2023/04/25 07:10:47;;;;;;;;;;;;;;;9.80;65.47;100205.75;4072501;29;20342;-67
2023/04/25 07:12:49;;;;;;;;;;;;;;;9.84;65.46;100212.41;4087138;29;20010;-68
2023/04/25 07:14:52;;;;;;;;;;;;;;;9.83;65.64;100213.47;4071436;29;20760;-68
2023/04/25 07:16:55;;;;;;;;;;;;;;;9.83;65.58;100216.16;4088930;29;20117;-68
2023/04/25 07:18:57;;;;;;;;;;;;;;;9.85;65.41;100222.19;4070127;29;20676;-68
2023/04/25 07:21:01;;;;;;;;;;;;;;;9.88;65.29;100219.13;4071103;29;20010;-69
2023/04/25 07:23:04;;;;;;;;;;;;;;;9.86;65.47;100223.88;4070896;29;20014;-67
2023/04/25 07:25:06;;;;;;;;;;;;;;;9.90;65.64;100225.16;4071534;29;20022;-69
2023/04/25 07:27:09;;;;;;;;;;;;;;;9.90;65.43;100228.69;4072566;29;20054;-69
2023/04/25 07:29:22;;;;;;;;;;;;;;;9.89;65.67;100229.72;4088294;29;20017;-69
2023/04/25 07:31:25;;;;;;;;;;;;;;;9.91;65.83;100232.25;4069771;29;20026;-69
2023/04/25 07:33:27;;;;;;;;;;;;;;;9.87;66.29;100241.72;4087817;29;20025;-69
2023/04/25 07:35:29;;;;;;;;;;;;;;;9.88;66.36;100238.00;4070408;29;20018;-70
2023/04/25 07:37:34;;;;;;;;;;;;;;;9.85;67.17;100243.78;4069251;29;20022;-68
2023/04/25 07:39:42;;;;;;;;;;;;;;;9.81;67.61;100239.75;4087533;29;20441;-67
2023/04/25 07:41:45;;;;;;;;;;;;;;;9.78;68.00;100240.13;4069791;29;20005;-68
2023/04/25 07:43:53;;;;;;;;;;;;;;;9.74;68.46;100253.16;4070185;29;20676;-67
2023/04/25 07:45:57;;;;;;;;;;;;;;;9.72;68.69;100253.31;4086758;29;20053;-68
2023/04/25 07:47:59;;;;;;;;;;;;;;;9.73;68.49;100248.75;4071865;29;20034;-69
2023/04/25 07:50:02;;;;;;;;;;;;;;;9.74;68.18;100261.22;4074781;29;20038;-68
2023/04/25 07:52:06;;;;;;;;;;;;;;;9.74;68.04;100263.94;4100945;28;20024;-68
2023/04/25 07:54:13;;;;;;;;;;;;;;;9.71;68.01;100261.59;4101870;28;20500;-67
2023/04/25 07:56:21;;;;;;;;;;;;;;;9.69;67.88;100263.66;4101999;28;20033;-67
2023/04/25 07:58:25;;;;;;;;;;;;;;;9.67;67.88;100263.84;4101679;28;20029;-69
2023/04/25 08:00:31;;;;;;;;;;;;;;;9.67;67.55;100263.84;4072080;29;20018;-67
2023/04/25 08:02:53;;;;;;;;;;;;;;;9.67;67.17;100269.22;4086899;29;19931;-67
2023/04/25 08:04:56;;;;;;;;;;;;;;;9.69;67.02;100274.44;4085730;29;20017;-67
2023/04/25 08:06:58;;;;;;;;;;;;;;;9.69;66.60;100269.03;4088214;29;20021;-67
2023/04/25 08:09:04;;;;;;;;;;;;;;;9.71;66.26;100277.78;4071666;29;20031;-67
2023/04/25 08:11:14;;;;;;;;;;;;;;;9.70;66.17;100276.09;4100531;28;20029;-68
2023/04/25 08:13:16;;;;;;;;;;;;;;;9.71;66.13;100275.91;4086860;29;20021;-68
2023/04/25 08:15:18;;;;;;;;;;;;;;;9.72;66.13;100283.00;4086571;28;20616;-67
2023/04/25 08:17:20;;;;;;;;;;;;;;;9.72;65.87;100274.06;4085952;29;20033;-67
2023/04/25 08:19:22;;;;;;;;;;;;;;;9.73;65.81;100281.97;4085757;29;21345;-68
2023/04/25 08:21:25;;;;;;;;;;;;;;;9.76;65.52;100278.06;4086338;28;20443;-68
2023/04/25 08:23:29;;;;;;;;;;;;;;;9.77;65.14;100281.63;4084959;28;19927;-67
2023/04/25 08:25:52;;;;;;;;;;;;;;;9.77;64.94;100285.16;4086105;29;20021;-68
2023/04/25 08:28:02;;;;;;;;;;;;;;;9.73;65.51;100291.91;4085425;29;20022;-67
2023/04/25 08:30:05;;;;;;;;;;;;;;;9.71;65.48;100297.47;4085416;28;20145;-68
2023/04/25 08:32:07;;;;;;;;;;;;;;;9.71;65.64;100291.25;4085076;29;20026;-68
2023/04/25 08:34:12;;;;;;;;;;;;;;;9.72;65.37;100301.03;4086178;29;20026;-66
2023/04/25 08:36:27;;;;;;;;;;;;;;;9.72;65.09;100303.75;4102281;28;20074;-67
2023/04/25 08:38:30;;;;;;;;;;;;;;;9.72;65.07;100303.75;4101683;28;20009;-68
2023/04/25 08:40:32;;;;;;;;;;;;;;;9.73;65.06;100308.94;4070429;29;20034;-67
2023/04/25 08:42:38;;;;;;;;;;;;;;;9.77;64.94;100306.72;4070200;29;20022;-69
2023/04/25 08:44:42;;;;;;;;;;;;;;;9.79;64.76;100303.84;4088745;28;19935;-68
2023/04/25 08:46:45;;;;;;;;;;;;;;;9.82;64.64;100309.69;4088048;28;20005;-68
2023/04/25 08:48:57;;;;;;;;;;;;;;;9.87;64.54;100307.31;4089662;28;20403;-67
2023/04/25 08:50:59;;;;;;;;;;;;;;;9.88;63.71;100306.28;4088791;28;20020;-67
2023/04/25 08:53:02;;;;;;;;;;;;;;;9.95;63.62;100310.94;4089081;28;20096;-68
2023/04/25 08:55:05;;;;;;;;;;;;;;;9.93;62.91;100311.94;4087546;29;20436;-67
2023/04/25 08:57:09;;;;;;;;;;;;;;;9.97;62.88;100316.97;4088605;28;20377;-67
2023/04/25 08:59:11;;;;;;;;;;;;;;;9.96;60.99;100315.31;4090184;28;20038;-68
2023/04/25 09:01:15;;;;;;;;;;;;;;;9.97;60.89;100327.75;4087505;29;20026;-67
2023/04/25 09:03:23;;;;;;;;;;;;;;;9.98;59.96;100321.34;4087309;28;20029;-67
2023/04/25 09:05:28;;;;;;;;;;;;;;;10.01;59.29;100327.22;4088446;29;19926;-67
2023/04/25 09:07:30;;;;;;;;;;;;;;;10.05;58.36;100331.22;4089804;29;20013;-67
2023/04/25 09:09:32;;;;;;;;;;;;;;;10.08;57.07;100335.44;4089014;28;20025;-67
2023/04/25 09:11:35;;;;;;;;;;;;;;;10.06;56.07;100337.47;4087502;29;20511;-67
2023/04/25 09:13:40;;;;;;;;;;;;;;;10.05;55.61;100342.03;4074478;29;20018;-67
2023/04/25 09:15:58;;;;;;;;;;;;;;;10.06;54.80;100345.56;4090127;28;20477;-67
2023/04/25 09:18:31;;;;;;;;;;;;;;;10.07;54.71;100345.38;4087756;29;20029;-66
2023/04/25 09:20:35;;;;;;;;;;;;;;;10.07;54.09;100349.94;4088893;28;20034;-68
2023/04/25 09:22:37;;;;;;;;;;;;;;;10.09;53.31;100345.19;4090174;29;20017;-68
2023/04/25 09:24:41;;;;;;;;;;;;;;;10.13;53.23;100342.97;4090482;29;20022;-67
2023/04/25 09:26:43;;;;;;;;;;;;;;;10.16;53.64;100351.53;4091297;29;19931;-67
2023/04/25 09:28:47;;;;;;;;;;;;;;;10.20;53.03;100354.69;4074566;29;20582;-67
2023/04/25 09:30:55;;;;;;;;;;;;;;;10.24;53.32;100353.31;4073744;29;20041;-67
2023/04/25 09:33:06;;;;;;;;;;;;;;;10.30;53.40;100355.28;4073250;29;20465;-67
2023/04/25 09:35:11;;;;;;;;;;;;;;;10.36;52.88;100351.88;4090965;28;20038;-68
2023/04/25 09:37:17;;;;;;;;;;;;;;;10.40;52.38;100365.84;4090081;29;20017;-66
2023/04/25 09:39:38;;;;;;;;;;;;;;;10.44;51.98;100370.69;4090737;28;20042;-68
2023/04/25 09:41:48;;;;;;;;;;;;;;;10.49;52.13;100372.81;4088454;28;20021;-67
2023/04/25 09:43:50;;;;;;;;;;;;;;;10.52;51.60;100369.75;4089753;29;20013;-67
2023/04/25 09:45:53;;;;;;;;;;;;;;;10.56;51.73;100359.41;4089305;29;20018;-70
2023/04/25 09:47:57;;;;;;;;;;;;;;;10.55;50.88;100366.69;4089727;29;19938;-67
2023/04/25 09:50:02;;;;;;;;;;;;;;;10.58;50.95;100368.16;4087454;28;20026;-68
2023/04/25 09:52:06;;;;;;;;;;;;;;;10.61;51.44;100365.94;4091020;29;20021;-68
2023/04/25 09:54:18;;;;;;;;;;;;;;;10.62;50.81;100342.47;4088008;28;20417;-68
2023/04/25 09:56:25;;;;;;;;;;;;;;;10.69;51.70;100361.44;4103691;28;20021;-68
2023/04/25 09:58:27;;;;;;;;;;;;;;;10.66;50.25;100359.97;4073146;29;20026;-68
2023/04/25 10:00:30;;;;;;;;;;;;;;;10.69;51.17;100356.06;4089949;28;20017;-68
2023/04/25 10:02:32;;;;;;;;;;;;;;;10.67;50.32;100367.03;4090061;29;20041;-68
2023/04/25 10:04:40;;;;;;;;;;;;;;;10.68;50.26;100363.31;4088722;29;20018;-68
2023/04/25 10:06:53;;;;;;;;;;;;;;;10.75;51.46;100371.50;4073489;29;20109;-68
2023/04/25 10:08:57;;;;;;;;;;;;;;;10.74;50.56;100364.44;4090109;28;19931;-68
2023/04/25 10:11:00;;;;;;;;;;;;;;;10.71;49.75;100359.44;4089582;29;20462;-68
2023/04/25 10:13:04;;;;;;;;;;;;;;;10.75;50.95;100369.66;4089946;29;20021;-68
2023/04/25 10:15:08;;;;;;;;;;;;;;;10.77;50.20;100367.59;4089242;29;20029;-68
2023/04/25 10:17:11;;;;;;;;;;;;;;;10.75;49.56;100369.66;4089581;29;20006;-68
2023/04/25 10:19:13;;;;;;;;;;;;;;;10.73;49.64;100366.28;4089181;29;20018;-67
2023/04/25 10:21:15;;;;;;;;;;;;;;;10.72;48.87;100375.44;4089044;29;20026;-68
2023/04/25 10:23:17;;;;;;;;;;;;;;;10.73;48.92;100390.59;4089865;29;20034;-68
2023/04/25 10:25:20;;;;;;;;;;;;;;;10.71;48.65;100379.16;4089919;29;20072;-67
2023/04/25 10:27:22;;;;;;;;;;;;;;;10.69;48.50;100383.06;4090092;29;20025;-68
2023/04/25 10:29:25;;;;;;;;;;;;;;;10.69;48.36;100383.06;4089912;28;19926;-67
2023/04/25 10:31:27;;;;;;;;;;;;;;;10.67;48.03;100385.13;4088370;29;20021;-68
2023/04/25 10:33:35;;;;;;;;;;;;;;;10.69;48.47;100386.63;4088999;29;20022;-68
2023/04/25 10:35:37;;;;;;;;;;;;;;;10.70;48.13;100377.47;4089972;29;20022;-68
2023/04/25 10:37:40;;;;;;;;;;;;;;;10.71;47.78;100384.56;4088969;29;20013;-67
2023/04/25 10:39:42;;;;;;;;;;;;;;;10.68;46.99;100384.94;4089339;28;20029;-68
2023/04/25 10:41:49;;;;;;;;;;;;;;;10.67;47.24;100394.03;4089260;29;20017;-68
2023/04/25 10:43:51;;;;;;;;;;;;;;;10.67;47.63;100391.34;4088305;29;20047;-68
2023/04/25 10:45:53;;;;;;;;;;;;;;;10.73;48.27;100392.47;4089017;29;20049;-68
2023/04/25 10:47:55;;;;;;;;;;;;;;;10.73;47.49;100387.91;4089362;29;20015;-69
2023/04/25 10:49:57;;;;;;;;;;;;;;;10.73;47.13;100389.78;4071781;29;19975;-68
2023/04/25 10:52:19;;;;;;;;;;;;;;;10.79;48.77;100387.16;4089128;29;20018;-68
2023/04/25 10:54:22;;;;;;;;;;;;;;;10.84;48.68;100389.28;4089722;29;20029;-68